Time;durP1;ratioP1;P1;durP2;ratioP2;P2;SDS_P1;SDS_P2;PMS_P1;PMS_P2;Temp;Humidity;BMP_temperature;BMP_pressure;BME280_temperature;BME280_humidity;BME280_pressure;Samples;Min_cycle;Max_cycle;Signal;HPM_P1;HPM_P2
2024/04/03 00:00:24;;;;;;;20.42;9.60;;;;;;;-146.25;100.00;52534.47;2102765;28;20033;-66
2024/04/03 00:01:26;;;;;;;15.95;9.45;;;;;;;-146.25;100.00;52548.66;2113163;28;20111;-66
2024/04/03 00:02:27;;;;;;;18.80;9.85;;;;;;;-146.25;100.00;52564.88;2095929;28;20037;-66
2024/04/03 00:03:28;;;;;;;16.88;9.60;;;;;;;-146.25;100.00;52583.13;2096367;28;20879;-67
2024/04/03 00:04:29;;;;;;;22.33;9.75;;;;;;;-146.25;100.00;52526.34;2079517;28;20049;-66
2024/04/03 00:05:30;;;;;;;21.92;11.00;;;;;;;-146.25;100.00;52534.47;2087712;28;20045;-66
2024/04/03 00:06:30;;;;;;;19.80;9.63;;;;;;;-146.25;100.00;52558.78;2095660;28;20448;-64
2024/04/03 00:07:31;;;;;;;20.58;9.68;;;;;;;-146.25;100.00;52564.88;2087518;28;20045;-66
2024/04/03 00:08:32;;;;;;;21.92;10.05;;;;;;;-146.25;100.00;52558.78;2088001;28;20128;-66
2024/04/03 00:09:33;;;;;;;20.75;9.73;;;;;;;-146.25;100.00;52542.56;2077917;28;20878;-66
2024/04/03 00:10:37;;;;;;;19.65;9.75;;;;;;;-146.25;100.00;52512.16;2071281;28;20030;-66
2024/04/03 00:11:38;;;;;;;15.45;9.27;;;;;;;-146.25;100.00;52522.28;2096420;28;20860;-66
2024/04/03 00:12:41;;;;;;;22.33;10.68;;;;;;;-146.25;100.00;52556.75;2096347;28;20037;-66
2024/04/03 00:13:42;;;;;;;22.08;9.55;;;;;;;-146.25;100.00;52524.31;2088133;28;20913;-66
2024/04/03 00:14:43;;;;;;;17.77;9.80;;;;;;;-146.25;100.00;52532.44;2104784;28;20080;-66
2024/04/03 00:15:44;;;;;;;18.63;8.98;;;;;;;-146.25;100.00;52532.44;2104461;28;20044;-66
2024/04/03 00:16:44;;;;;;;20.05;8.63;;;;;;;-146.25;100.00;52548.66;2088017;28;20066;-66
2024/04/03 00:17:45;;;;;;;18.83;9.45;;;;;;;-146.25;100.00;52493.91;2087710;28;20494;-65
2024/04/03 00:18:46;;;;;;;18.65;9.70;;;;;;;-146.25;100.00;52566.91;2087984;28;20049;-66
2024/04/03 00:19:47;;;;;;;18.58;9.90;;;;;;;-146.25;100.00;52510.13;2079609;28;21224;-66
2024/04/03 00:20:48;;;;;;;18.98;9.52;;;;;;;-146.25;100.00;52497.97;2104832;28;20040;-66
2024/04/03 00:21:52;;;;;;;19.50;9.93;;;;;;;-146.25;100.00;52534.47;2104501;28;20482;-66
2024/04/03 00:22:53;;;;;;;18.73;9.85;;;;;;;-146.25;100.00;52558.78;2096242;28;20045;-66
2024/04/03 00:23:55;;;;;;;19.98;10.68;;;;;;;-146.25;100.00;52540.53;2104332;28;20115;-66
2024/04/03 00:24:56;;;;;;;15.70;9.65;;;;;;;-146.25;100.00;52534.47;2104077;28;20036;-65
2024/04/03 00:26:01;;;;;;;17.42;9.02;;;;;;;-146.25;100.00;52554.75;2103671;28;20426;-66
2024/04/03 00:27:02;;;;;;;18.63;8.45;;;;;;;-146.25;100.00;52536.50;2103763;28;20729;-66
2024/04/03 00:28:03;;;;;;;19.77;10.57;;;;;;;-146.25;100.00;52526.34;2104392;28;20053;-65
2024/04/03 00:29:06;;;;;;;20.13;9.48;;;;;;;-146.25;100.00;52538.53;2104628;28;20098;-66
2024/04/03 00:30:08;;;;;;;22.05;10.00;;;;;;;-146.25;100.00;52554.75;2087587;28;20938;-66
2024/04/03 00:31:09;;;;;;;23.70;10.13;;;;;;;-146.25;100.00;52518.25;2079893;28;20034;-66
2024/04/03 00:32:10;;;;;;;18.30;9.50;;;;;;;-146.25;100.00;52510.13;2095546;28;20430;-66
2024/04/03 00:33:10;;;;;;;18.25;9.68;;;;;;;-146.25;100.00;52493.91;2104568;28;20045;-65
2024/04/03 00:34:11;;;;;;;14.90;9.50;;;;;;;-146.25;100.00;52512.16;2095940;28;20573;-66
2024/04/03 00:35:15;;;;;;;16.60;9.77;;;;;;;-146.25;100.00;52520.28;2088623;28;20410;-68
2024/04/03 00:36:16;;;;;;;19.73;10.43;;;;;;;-146.25;100.00;52495.94;2079328;28;20046;-65
2024/04/03 00:37:16;;;;;;;13.57;9.10;;;;;;;-146.25;100.00;52534.47;2103894;28;20029;-66
2024/04/03 00:38:17;;;;;;;21.25;10.88;;;;;;;-146.25;100.00;52500.00;2096015;28;20040;-65
2024/04/03 00:39:18;;;;;;;17.50;10.50;;;;;;;-146.25;100.00;52542.56;2079640;28;20042;-66
2024/04/03 00:40:19;;;;;;;21.17;10.77;;;;;;;-146.25;100.00;52469.56;2087608;28;20064;-65
2024/04/03 00:41:21;;;;;;;21.15;10.90;;;;;;;-146.25;100.00;52534.47;2104529;28;20583;-66
2024/04/03 00:42:24;;;;;;;23.50;11.15;;;;;;;-146.25;100.00;52502.03;2112579;28;20952;-66
2024/04/03 00:43:29;;;;;;;19.02;11.02;;;;;;;-146.25;100.00;52518.25;2096769;28;20996;-66
2024/04/03 00:44:31;;;;;;;19.17;11.35;;;;;;;-146.25;100.00;52540.53;2095712;28;20045;-66
2024/04/03 00:45:32;;;;;;;19.63;11.40;;;;;;;-146.25;100.00;52542.56;2095291;28;20181;-66
2024/04/03 00:46:34;;;;;;;21.90;11.38;;;;;;;-146.25;100.00;52538.53;2087424;28;20108;-65
2024/04/03 00:47:38;;;;;;;17.35;11.20;;;;;;;-146.25;100.00;52504.03;2087591;28;20038;-66
2024/04/03 00:48:38;;;;;;;20.77;12.32;;;;;;;-146.25;100.00;52528.38;2087417;28;20034;-66
2024/04/03 00:49:40;;;;;;;23.13;11.45;;;;;;;-146.25;100.00;52512.16;2087963;28;20096;-66
2024/04/03 00:50:44;;;;;;;21.77;11.90;;;;;;;-146.25;100.00;52550.69;2104219;28;20036;-66
2024/04/03 00:51:49;;;;;;;22.65;11.77;;;;;;;-146.25;100.00;52510.13;2103784;28;20040;-65
2024/04/03 00:52:49;;;;;;;20.75;12.43;;;;;;;-146.25;100.00;52528.38;2087894;28;20221;-65
2024/04/03 00:53:50;;;;;;;19.13;11.45;;;;;;;-146.25;100.00;52520.28;2087720;28;20136;-66
2024/04/03 00:54:51;;;;;;;24.73;12.88;;;;;;;-146.25;100.00;52491.88;2087039;28;20049;-66
2024/04/03 00:55:53;;;;;;;20.77;12.38;;;;;;;-146.25;100.00;52493.91;2087896;28;20037;-66
2024/04/03 00:56:53;;;;;;;23.38;12.02;;;;;;;-146.25;100.00;52524.31;2079495;28;20899;-67
2024/04/03 00:57:57;;;;;;;21.05;11.60;;;;;;;-146.25;100.00;52534.47;2096029;28;20096;-67
2024/04/03 00:58:58;;;;;;;16.40;11.50;;;;;;;-146.25;100.00;52554.75;2095502;28;20846;-66
2024/04/03 00:59:59;;;;;;;21.17;11.52;;;;;;;-146.25;100.00;52556.75;2071952;28;20046;-67
2024/04/03 01:01:01;;;;;;;23.58;12.68;;;;;;;-146.25;100.00;52532.44;2087733;28;20575;-65
2024/04/03 01:02:02;;;;;;;20.40;12.95;;;;;;;-146.25;100.00;52530.41;2105727;28;21032;-67
2024/04/03 01:03:04;;;;;;;22.10;12.23;;;;;;;-146.25;100.00;52562.84;2096378;28;20033;-67
2024/04/03 01:04:05;;;;;;;20.20;12.57;;;;;;;-146.25;100.00;52526.34;2081139;28;20867;-65
2024/04/03 01:05:06;;;;;;;20.20;11.88;;;;;;;-146.25;100.00;52542.56;2081156;28;20042;-67
2024/04/03 01:06:08;;;;;;;23.70;13.45;;;;;;;-146.25;100.00;52534.47;2089006;28;20077;-66
2024/04/03 01:07:09;;;;;;;25.88;12.88;;;;;;;-146.25;100.00;52532.44;2088956;28;20049;-66
2024/04/03 01:08:10;;;;;;;24.67;12.93;;;;;;;-146.25;100.00;52534.47;2089046;28;20041;-67
2024/04/03 01:09:11;;;;;;;20.73;12.10;;;;;;;-146.25;100.00;52536.50;2097387;28;20083;-66
2024/04/03 01:10:12;;;;;;;22.27;12.90;;;;;;;-146.25;100.00;52512.16;2096999;28;20056;-66
2024/04/03 01:11:13;;;;;;;20.70;13.07;;;;;;;-146.25;100.00;52514.19;2089202;28;20045;-67
2024/04/03 01:12:16;;;;;;;27.60;13.40;;;;;;;-146.25;100.00;52526.34;2080697;28;20057;-66
2024/04/03 01:13:16;;;;;;;23.45;13.48;;;;;;;-146.25;100.00;52540.53;2081140;28;20038;-65
2024/04/03 01:14:20;;;;;;;19.95;13.10;;;;;;;-146.25;100.00;52560.81;2105679;28;20514;-66
2024/04/03 01:15:21;;;;;;;22.35;12.43;;;;;;;-146.25;100.00;52493.91;2105214;28;20032;-66
2024/04/03 01:16:22;;;;;;;22.48;12.98;;;;;;;-146.25;100.00;52524.31;2088604;28;21252;-64
2024/04/03 01:17:25;;;;;;;24.25;12.00;;;;;;;-146.25;100.00;52532.44;2097441;28;20047;-66
2024/04/03 01:18:25;;;;;;;21.10;11.60;;;;;;;-146.25;100.00;52530.41;2104840;28;20940;-65
2024/04/03 01:19:26;;;;;;;25.95;12.65;;;;;;;-146.25;100.00;52548.66;2088828;28;20041;-65
2024/04/03 01:20:27;;;;;;;20.38;12.55;;;;;;;-146.25;100.00;52536.50;2088808;28;20080;-67
2024/04/03 01:21:28;;;;;;;26.40;13.00;;;;;;;-146.25;100.00;52497.97;2089075;28;20116;-67
2024/04/03 01:22:29;;;;;;;25.13;12.88;;;;;;;-146.25;100.00;52542.56;2097253;28;20033;-65
2024/04/03 01:23:30;;;;;;;21.55;12.57;;;;;;;-146.25;100.00;52526.34;2097045;28;20350;-65
2024/04/03 01:24:33;;;;;;;18.30;12.32;;;;;;;-146.25;100.00;52546.63;2080518;28;20046;-65
2024/04/03 01:25:34;;;;;;;24.88;12.93;;;;;;;-146.25;100.00;52546.63;2106035;28;20040;-65
2024/04/03 01:26:37;;;;;;;23.38;12.23;;;;;;;-146.25;100.00;52504.03;2105278;28;20394;-65
2024/04/03 01:27:38;;;;;;;26.40;12.80;;;;;;;-146.25;100.00;52554.75;2089812;28;20887;-65
2024/04/03 01:28:39;;;;;;;26.58;12.88;;;;;;;-146.25;100.00;52540.53;2096894;28;20116;-65
2024/04/03 01:29:39;;;;;;;22.75;12.07;;;;;;;-146.25;100.00;52538.53;2097126;28;20095;-65
2024/04/03 01:30:43;;;;;;;24.77;12.48;;;;;;;-146.25;100.00;52522.28;2096698;28;20068;-65
2024/04/03 01:31:43;;;;;;;23.30;11.82;;;;;;;-146.25;100.00;52540.53;2081237;28;20038;-65
2024/04/03 01:32:44;;;;;;;23.10;11.70;;;;;;;-146.25;100.00;52532.44;2088008;28;20754;-66
2024/04/03 01:33:47;;;;;;;24.83;12.27;;;;;;;-146.25;100.00;52522.28;2088699;28;20053;-65
2024/04/03 01:34:47;;;;;;;22.60;12.75;;;;;;;-146.25;100.00;52518.25;2072784;28;20038;-64
2024/04/03 01:35:48;;;;;;;23.48;11.13;;;;;;;-146.25;100.00;52554.75;2089226;28;20096;-67
2024/04/03 01:36:49;;;;;;;24.00;11.35;;;;;;;-146.25;100.00;52530.41;2096955;28;20124;-67
2024/04/03 01:37:50;;;;;;;20.05;11.68;;;;;;;-146.25;100.00;52526.34;2097368;28;20037;-67
2024/04/03 01:38:51;;;;;;;23.73;12.02;;;;;;;-146.25;100.00;52520.28;2080220;28;20042;-67
2024/04/03 01:39:51;;;;;;;20.95;11.82;;;;;;;-146.25;100.00;52536.50;2080174;28;20038;-66
2024/04/03 01:40:55;;;;;;;18.60;10.77;;;;;;;-146.25;100.00;52528.38;2088617;28;20507;-67
2024/04/03 01:41:55;;;;;;;25.17;11.95;;;;;;;-146.25;100.00;52564.88;2089167;28;20918;-67
2024/04/03 01:42:56;;;;;;;25.73;12.75;;;;;;;-146.25;100.00;52506.06;2088383;28;20048;-67
2024/04/03 01:43:57;;;;;;;18.52;11.30;;;;;;;-146.25;100.00;52534.47;2105621;28;20854;-65
2024/04/03 01:44:58;;;;;;;23.15;12.15;;;;;;;-146.25;100.00;52540.53;2105271;28;20040;-65
2024/04/03 01:46:00;;;;;;;26.10;12.50;;;;;;;-146.25;100.00;52593.25;2105733;28;20545;-67
2024/04/03 01:47:04;;;;;;;27.23;12.00;;;;;;;-146.25;100.00;52534.47;2088101;28;20034;-67
2024/04/03 01:48:06;;;;;;;22.75;10.95;;;;;;;-146.25;100.00;52548.66;2081764;28;20082;-67
2024/04/03 01:49:06;;;;;;;24.50;10.95;;;;;;;-146.25;100.00;52570.97;2096882;28;20068;-66
2024/04/03 01:50:07;;;;;;;20.17;10.85;;;;;;;-146.25;100.00;52518.25;2088457;28;20053;-67
2024/04/03 01:51:08;;;;;;;19.77;10.70;;;;;;;-146.25;100.00;52540.53;2105467;28;20045;-66
2024/04/03 01:52:09;;;;;;;26.17;11.60;;;;;;;-146.25;100.00;52546.63;2105646;28;20041;-66
2024/04/03 01:53:09;;;;;;;25.25;11.30;;;;;;;-146.25;100.00;52542.56;2088616;28;20515;-66
2024/04/03 01:54:10;;;;;;;22.27;11.00;;;;;;;-146.25;100.00;52546.63;2088430;28;20046;-66
2024/04/03 01:55:11;;;;;;;22.25;11.95;;;;;;;-146.25;100.00;52550.69;2089217;28;20025;-66
2024/04/03 01:56:12;;;;;;;24.70;12.45;;;;;;;-146.25;100.00;52528.38;2096661;28;20075;-66
2024/04/03 01:57:13;;;;;;;22.08;11.25;;;;;;;-146.25;100.00;52534.47;2097083;28;20077;-66
2024/04/03 01:58:14;;;;;;;26.67;12.63;;;;;;;-146.25;100.00;52530.41;2097002;28;20048;-66
2024/04/03 01:59:14;;;;;;;22.73;11.57;;;;;;;-146.25;100.00;52542.56;2080571;28;20042;-66
2024/04/03 02:00:15;;;;;;;22.73;11.65;;;;;;;-146.25;100.00;52550.69;2079683;28;20269;-66
2024/04/03 02:01:16;;;;;;;27.15;11.68;;;;;;;-146.25;100.00;52518.25;2105472;28;20113;-66
2024/04/03 02:02:17;;;;;;;22.50;10.63;;;;;;;-146.25;100.00;52542.56;2103550;28;20550;-66
2024/04/03 02:03:23;;;;;;;27.40;11.80;;;;;;;-146.25;100.00;52532.44;2088535;28;20045;-66
2024/04/03 02:04:23;;;;;;;23.40;12.55;;;;;;;-146.25;100.00;52524.31;2106035;28;20074;-66
2024/04/03 02:05:24;;;;;;;21.20;10.57;;;;;;;-146.25;100.00;52520.28;2105309;28;20083;-66
2024/04/03 02:06:25;;;;;;;25.98;11.57;;;;;;;-146.25;100.00;52566.91;2105342;28;20051;-66
2024/04/03 02:07:27;;;;;;;21.83;11.38;;;;;;;-146.25;100.00;52585.16;2105372;28;20052;-66
2024/04/03 02:08:28;;;;;;;23.05;10.95;;;;;;;-146.25;100.00;52536.50;2096898;28;20041;-66
2024/04/03 02:09:29;;;;;;;23.15;10.25;;;;;;;-146.25;100.00;52558.78;2105533;28;20948;-65
2024/04/03 02:10:30;;;;;;;27.08;10.82;;;;;;;-146.25;100.00;52497.97;2105512;28;20048;-66
2024/04/03 02:11:31;;;;;;;24.45;11.30;;;;;;;-146.25;100.00;52522.28;2105458;28;20044;-65
2024/04/03 02:12:31;;;;;;;20.65;10.02;;;;;;;-146.25;100.00;52526.34;2104727;28;20044;-66
2024/04/03 02:13:32;;;;;;;20.83;10.35;;;;;;;-146.25;100.00;52540.53;2096804;28;20103;-66
2024/04/03 02:14:33;;;;;;;24.88;10.55;;;;;;;-146.25;100.00;52536.50;2096955;28;20049;-66
2024/04/03 02:15:36;;;;;;;28.00;11.07;;;;;;;-146.25;100.00;52502.03;2088738;28;20048;-66
2024/04/03 02:16:38;;;;;;;25.02;10.05;;;;;;;-146.25;100.00;52524.31;2096108;28;20045;-66
2024/04/03 02:17:38;;;;;;;24.98;10.63;;;;;;;-146.25;100.00;52530.41;2105533;28;20029;-66
2024/04/03 02:18:39;;;;;;;22.00;10.30;;;;;;;-146.25;100.00;52542.56;2104548;28;20052;-66
2024/04/03 02:19:42;;;;;;;19.30;10.05;;;;;;;-146.25;100.00;52530.41;2105227;28;20126;-66
2024/04/03 02:20:43;;;;;;;22.27;9.60;;;;;;;-146.25;100.00;52542.56;2104791;28;20889;-66
2024/04/03 02:21:44;;;;;;;24.48;10.38;;;;;;;-146.25;100.00;52534.47;2105428;28;20037;-66
2024/04/03 02:22:46;;;;;;;20.23;9.63;;;;;;;-146.25;100.00;52534.47;2113594;28;20510;-66
2024/04/03 02:23:47;;;;;;;22.23;9.50;;;;;;;-146.25;100.00;52550.69;2096527;28;20037;-66
2024/04/03 02:24:47;;;;;;;16.20;10.07;;;;;;;-146.25;100.00;52526.34;2096765;28;20041;-66
2024/04/03 02:25:48;;;;;;;22.63;9.63;;;;;;;-146.25;100.00;52508.09;2097199;28;20427;-66
2024/04/03 02:26:49;;;;;;;20.98;9.15;;;;;;;-146.25;100.00;52520.28;2096738;28;20037;-66
2024/04/03 02:27:50;;;;;;;20.27;9.48;;;;;;;-146.25;100.00;52542.56;2105657;28;20094;-66
2024/04/03 02:28:51;;;;;;;22.02;9.57;;;;;;;-146.25;100.00;52518.25;2096375;28;20040;-65
2024/04/03 02:29:54;;;;;;;25.33;10.32;;;;;;;-146.25;100.00;52522.28;2088430;28;20064;-65
2024/04/03 02:31:03;;;;;;;22.80;10.18;;;;;;;-146.25;100.00;52518.25;2088599;28;20147;-66
2024/04/03 02:32:04;;;;;;;19.70;9.63;;;;;;;-146.25;100.00;52550.69;2097567;28;20037;-66
2024/04/03 02:33:06;;;;;;;20.27;9.40;;;;;;;-146.25;100.00;52534.47;2104396;28;20859;-66
2024/04/03 02:34:08;;;;;;;22.75;8.85;;;;;;;-146.25;100.00;52524.31;2088404;28;20056;-66
2024/04/03 02:35:08;;;;;;;19.58;9.27;;;;;;;-146.25;100.00;52540.53;2104909;28;20801;-66
2024/04/03 02:36:13;;;;;;;19.08;8.60;;;;;;;-146.25;100.00;52540.53;2105313;28;20047;-66
2024/04/03 02:37:14;;;;;;;15.82;8.68;;;;;;;-146.25;100.00;52526.34;2105376;28;20067;-65
2024/04/03 02:38:15;;;;;;;20.95;9.15;;;;;;;-146.25;100.00;52544.59;2105527;28;20415;-66
2024/04/03 02:39:15;;;;;;;22.63;10.35;;;;;;;-146.25;100.00;52526.34;2103479;28;20071;-66
2024/04/03 02:40:16;;;;;;;25.42;9.40;;;;;;;-146.25;100.00;52550.69;2105121;28;20040;-66
2024/04/03 02:41:17;;;;;;;20.02;8.82;;;;;;;-146.25;100.00;52497.97;2087945;28;20050;-65
2024/04/03 02:42:18;;;;;;;22.25;9.65;;;;;;;-146.25;100.00;52522.28;2097039;28;20045;-66
2024/04/03 02:43:19;;;;;;;19.92;9.20;;;;;;;-146.25;100.00;52520.28;2096621;28;20056;-66
2024/04/03 02:44:20;;;;;;;16.95;8.75;;;;;;;-146.25;100.00;52522.28;2097001;28;20083;-66
2024/04/03 02:45:20;;;;;;;16.40;9.05;;;;;;;-146.25;100.00;52583.13;2104972;28;20430;-66
2024/04/03 02:46:21;;;;;;;19.65;8.25;;;;;;;-146.25;100.00;52512.16;2096912;28;20041;-66
2024/04/03 02:47:22;;;;;;;22.38;9.40;;;;;;;-146.25;100.00;52532.44;2087505;28;20056;-66
2024/04/03 02:48:23;;;;;;;17.75;9.02;;;;;;;-146.25;100.00;52564.88;2088358;28;20041;-66
2024/04/03 02:49:24;;;;;;;19.15;9.32;;;;;;;-146.25;100.00;52550.69;2080033;28;20030;-66
2024/04/03 02:50:25;;;;;;;16.85;8.52;;;;;;;-146.25;100.00;52514.19;2080275;28;20077;-66
2024/04/03 02:51:27;;;;;;;15.75;8.95;;;;;;;-146.25;100.00;52558.78;2071776;28;20046;-66
2024/04/03 02:52:28;;;;;;;16.80;8.75;;;;;;;-146.25;100.00;52544.59;2072815;28;20047;-64
2024/04/03 02:53:30;;;;;;;20.25;8.88;;;;;;;-146.25;100.00;52548.66;2088242;28;20041;-66
2024/04/03 02:54:32;;;;;;;19.23;9.27;;;;;;;-146.25;100.00;52510.13;2096401;28;21015;-66
2024/04/03 02:55:36;;;;;;;17.83;8.80;;;;;;;-146.25;100.00;52546.63;2080294;28;20034;-67
2024/04/03 02:56:37;;;;;;;20.35;9.55;;;;;;;-146.25;100.00;52520.28;2081130;28;20896;-66
2024/04/03 02:57:38;;;;;;;23.08;9.23;;;;;;;-146.25;100.00;52510.13;2088458;28;20080;-67
2024/04/03 02:58:39;;;;;;;21.27;8.80;;;;;;;-146.25;100.00;52512.16;2105271;28;20418;-66
2024/04/03 02:59:39;;;;;;;19.40;9.05;;;;;;;-146.25;100.00;52564.88;2104991;28;20123;-66
2024/04/03 03:00:40;;;;;;;18.98;9.55;;;;;;;-146.25;100.00;52544.59;2096599;28;20048;-66
2024/04/03 03:01:44;;;;;;;21.63;9.95;;;;;;;-146.25;100.00;52560.81;2088149;28;20045;-66
2024/04/03 03:02:47;;;;;;;22.30;9.30;;;;;;;-146.25;100.00;52518.25;2088525;28;20025;-66
2024/04/03 03:03:48;;;;;;;22.17;9.90;;;;;;;-146.25;100.00;52530.41;2088033;28;20883;-67
2024/04/03 03:04:51;;;;;;;20.33;9.00;;;;;;;-146.25;100.00;52534.47;2088301;28;20048;-66
2024/04/03 03:05:54;;;;;;;26.17;10.30;;;;;;;-146.25;100.00;52546.63;2088410;28;21125;-67
2024/04/03 03:06:54;;;;;;;19.02;8.77;;;;;;;-146.25;100.00;52554.75;2096569;28;20037;-65
2024/04/03 03:07:55;;;;;;;18.25;9.52;;;;;;;-146.25;100.00;52542.56;2096493;28;20049;-66
2024/04/03 03:08:56;;;;;;;21.58;9.20;;;;;;;-146.25;100.00;52514.19;2087856;28;20412;-66
2024/04/03 03:09:57;;;;;;;20.55;9.25;;;;;;;-146.25;100.00;52530.41;2088451;28;20042;-67
2024/04/03 03:11:00;;;;;;;20.30;9.70;;;;;;;-146.25;100.00;52526.34;2087655;28;20041;-66
2024/04/03 03:12:01;;;;;;;20.60;9.55;;;;;;;-146.25;100.00;52524.31;2105143;28;21010;-66
2024/04/03 03:13:02;;;;;;;22.52;9.10;;;;;;;-146.25;100.00;52528.38;2096166;28;20029;-66
2024/04/03 03:14:04;;;;;;;21.85;9.27;;;;;;;-146.25;100.00;52528.38;2088336;28;20046;-66
2024/04/03 03:15:05;;;;;;;28.70;10.18;;;;;;;-146.25;100.00;52526.34;2097138;28;20860;-66
2024/04/03 03:16:06;;;;;;;23.52;8.95;;;;;;;-146.25;100.00;52506.06;2096781;28;20056;-66
2024/04/03 03:17:07;;;;;;;17.55;8.00;;;;;;;-146.25;100.00;52520.28;2087980;28;20042;-66
2024/04/03 03:18:08;;;;;;;20.65;8.82;;;;;;;-146.25;100.00;52530.41;2104945;28;20142;-66
2024/04/03 03:19:08;;;;;;;19.58;9.07;;;;;;;-146.25;100.00;52512.16;2104707;28;20524;-66
2024/04/03 03:20:09;;;;;;;18.95;8.80;;;;;;;-146.25;100.00;52542.56;2088240;28;20064;-66
2024/04/03 03:21:10;;;;;;;19.63;9.40;;;;;;;-146.25;100.00;52502.03;2088092;28;20045;-66
2024/04/03 03:22:11;;;;;;;19.20;9.20;;;;;;;-146.25;100.00;52534.47;2088256;28;20051;-66
2024/04/03 03:23:11;;;;;;;20.98;9.07;;;;;;;-146.25;100.00;52514.19;2104476;28;20065;-66
2024/04/03 03:24:12;;;;;;;21.38;9.15;;;;;;;-146.25;100.00;52544.59;2103866;28;20534;-66
2024/04/03 03:25:13;;;;;;;19.27;9.13;;;;;;;-146.25;100.00;52534.47;2088006;28;20120;-66
2024/04/03 03:26:14;;;;;;;21.35;9.55;;;;;;;-146.25;100.00;52536.50;2105130;28;20049;-66
2024/04/03 03:27:15;;;;;;;20.20;8.90;;;;;;;-146.25;100.00;52520.28;2104740;28;20041;-66
2024/04/03 03:28:15;;;;;;;21.00;8.32;;;;;;;-146.25;100.00;52483.78;2096561;28;20403;-66
2024/04/03 03:29:19;;;;;;;16.70;8.55;;;;;;;-146.25;100.00;52560.81;2095745;28;20519;-66
2024/04/03 03:30:19;;;;;;;25.90;9.20;;;;;;;-146.25;100.00;52514.19;2097360;28;20072;-66
2024/04/03 03:31:20;;;;;;;23.88;10.10;;;;;;;-146.25;100.00;52542.56;2104584;28;20044;-66
2024/04/03 03:32:21;;;;;;;20.05;9.18;;;;;;;-146.25;100.00;52550.69;2087822;28;20049;-66
2024/04/03 03:33:22;;;;;;;22.70;9.27;;;;;;;-146.25;100.00;52542.56;2096278;28;20053;-65
2024/04/03 03:34:22;;;;;;;19.60;9.80;;;;;;;-146.25;100.00;52546.63;2096246;28;20091;-65
2024/04/03 03:35:23;;;;;;;14.02;9.20;;;;;;;-146.25;100.00;52564.88;2087697;28;20048;-65
2024/04/03 03:36:24;;;;;;;19.13;8.77;;;;;;;-146.25;100.00;52520.28;2088102;28;20046;-66
2024/04/03 03:37:25;;;;;;;18.65;9.30;;;;;;;-146.25;100.00;52564.88;2087812;28;20113;-65
2024/04/03 03:38:26;;;;;;;20.70;9.32;;;;;;;-146.25;100.00;52516.22;2105048;28;20117;-66
2024/04/03 03:39:26;;;;;;;16.15;8.13;;;;;;;-146.25;100.00;52508.09;2104289;28;20123;-65
2024/04/03 03:40:27;;;;;;;21.40;8.90;;;;;;;-146.25;100.00;52536.50;2087657;28;20145;-66
2024/04/03 03:41:28;;;;;;;18.83;9.45;;;;;;;-146.25;100.00;52510.13;2096243;28;20056;-66
2024/04/03 03:42:29;;;;;;;19.48;9.43;;;;;;;-146.25;100.00;52544.59;2096268;28;20041;-66
2024/04/03 03:43:30;;;;;;;16.20;9.02;;;;;;;-146.25;100.00;52540.53;2088095;28;20038;-66
2024/04/03 03:44:31;;;;;;;19.35;9.85;;;;;;;-146.25;100.00;52550.69;2096192;28;20478;-66
2024/04/03 03:45:31;;;;;;;22.10;9.43;;;;;;;-146.25;100.00;52530.41;2104504;28;20126;-66
2024/04/03 03:46:32;;;;;;;19.95;9.15;;;;;;;-146.25;100.00;52570.97;2087821;28;20041;-66
2024/04/03 03:47:35;;;;;;;23.45;9.82;;;;;;;-146.25;100.00;52542.56;2088026;28;20045;-66
2024/04/03 03:52:40;;;;;;;19.55;8.85;;;;;;;-146.25;100.00;52568.94;2087921;28;20034;-66
2024/04/03 03:53:41;;;;;;;18.73;7.97;;;;;;;-146.25;100.00;52506.06;2083912;28;20042;-66
2024/04/03 03:54:43;;;;;;;19.70;9.82;;;;;;;-146.25;100.00;52528.38;2087652;28;20096;-66
2024/04/03 03:55:44;;;;;;;24.75;9.45;;;;;;;-146.25;100.00;52520.28;2096577;28;20049;-66
2024/04/03 03:56:45;;;;;;;16.73;9.30;;;;;;;-146.25;100.00;52546.63;2087879;28;20117;-66
2024/04/03 03:57:46;;;;;;;18.27;8.93;;;;;;;-146.25;100.00;52536.50;2096180;28;20040;-66
2024/04/03 03:58:47;;;;;;;17.83;8.95;;;;;;;-146.25;100.00;52554.75;2104301;28;20044;-66
2024/04/03 03:59:47;;;;;;;20.02;9.25;;;;;;;-146.25;100.00;52530.41;2087768;28;20488;-66
2024/04/03 04:00:48;;;;;;;24.63;9.68;;;;;;;-146.25;100.00;52552.72;2104809;28;20052;-66
2024/04/03 04:01:51;;;;;;;20.00;9.48;;;;;;;-146.25;100.00;52560.81;2104027;28;20036;-66
2024/04/03 04:02:54;;;;;;;18.15;8.85;;;;;;;-146.25;100.00;52524.31;2093634;28;20530;-65
2024/04/03 04:03:55;;;;;;;18.95;9.02;;;;;;;-146.25;100.00;52568.94;2104840;28;20085;-66
2024/04/03 04:04:56;;;;;;;22.10;9.25;;;;;;;-146.25;100.00;52518.25;2104143;28;20075;-66
2024/04/03 04:06:01;;;;;;;23.92;9.38;;;;;;;-146.25;100.00;52534.47;2079886;28;20050;-66
2024/04/03 04:07:02;;;;;;;21.20;9.45;;;;;;;-146.25;100.00;52522.28;2088697;28;20902;-66
2024/04/03 04:08:04;;;;;;;22.58;9.77;;;;;;;-146.25;100.00;52508.09;2095848;28;20049;-66
2024/04/03 04:09:04;;;;;;;16.13;9.25;;;;;;;-146.25;100.00;52534.47;2087878;28;20037;-66
2024/04/03 04:10:06;;;;;;;20.00;9.60;;;;;;;-146.25;100.00;52550.69;2088159;28;20042;-66
2024/04/03 04:11:06;;;;;;;24.70;9.77;;;;;;;-146.25;100.00;52516.22;2087750;28;20038;-66
2024/04/03 04:12:07;;;;;;;25.50;8.85;;;;;;;-146.25;100.00;52528.38;2104716;28;20052;-66
2024/04/03 04:13:08;;;;;;;18.83;9.30;;;;;;;-146.25;100.00;52544.59;2104121;28;20036;-67
2024/04/03 04:14:09;;;;;;;23.70;9.25;;;;;;;-146.25;100.00;52522.28;2104779;28;20048;-66
2024/04/03 04:15:10;;;;;;;29.35;9.73;;;;;;;-146.25;100.00;52526.34;2095723;28;20041;-66
2024/04/03 04:16:11;;;;;;;19.88;8.77;;;;;;;-146.25;100.00;52542.56;2096385;28;20025;-65
2024/04/03 04:17:12;;;;;;;21.02;9.55;;;;;;;-146.25;100.00;52497.97;2104144;28;20052;-65
2024/04/03 04:18:14;;;;;;;23.98;9.88;;;;;;;-146.25;100.00;52548.66;2113095;28;20119;-66
2024/04/03 04:19:15;;;;;;;24.17;9.30;;;;;;;-146.25;100.00;52558.78;2104122;28;20886;-65
2024/04/03 04:20:16;;;;;;;20.65;8.93;;;;;;;-146.25;100.00;52536.50;2087888;28;20037;-66
2024/04/03 04:21:18;;;;;;;26.08;8.88;;;;;;;-146.25;100.00;52552.72;2104257;28;20045;-65
2024/04/03 04:22:19;;;;;;;21.42;9.23;;;;;;;-146.25;100.00;52556.75;2104882;28;20048;-65
2024/04/03 04:23:20;;;;;;;27.85;9.32;;;;;;;-146.25;100.00;52510.13;2104439;28;20091;-65
2024/04/03 04:24:22;;;;;;;16.58;8.60;;;;;;;-146.25;100.00;52530.41;2104706;28;20055;-66
2024/04/03 04:25:26;;;;;;;19.63;8.98;;;;;;;-146.25;100.00;52546.63;2087378;28;20049;-66
2024/04/03 04:26:29;;;;;;;28.55;9.25;;;;;;;-146.25;100.00;52514.19;2104921;28;20043;-66
2024/04/03 04:27:30;;;;;;;18.63;8.02;;;;;;;-146.25;100.00;52522.28;2104098;28;20772;-66
2024/04/03 04:28:32;;;;;;;22.58;8.73;;;;;;;-146.25;100.00;52568.94;2087594;28;20045;-66
2024/04/03 04:29:37;;;;;;;20.67;8.75;;;;;;;-146.25;100.00;52546.63;2087517;28;20030;-66
2024/04/03 04:30:40;;;;;;;24.17;8.82;;;;;;;-146.25;100.00;52497.97;2104901;28;20118;-66
2024/04/03 04:31:41;;;;;;;21.60;8.82;;;;;;;-146.25;100.00;52528.38;2103926;28;20036;-66
2024/04/03 04:32:42;;;;;;;24.92;9.02;;;;;;;-146.25;100.00;52570.97;2087384;28;20033;-66
2024/04/03 04:33:43;;;;;;;19.95;8.73;;;;;;;-146.25;100.00;52532.44;2078586;28;20057;-66
2024/04/03 04:34:44;;;;;;;21.83;9.10;;;;;;;-146.25;100.00;52536.50;2096798;28;20049;-66
2024/04/03 04:35:53;;;;;;;26.67;9.05;;;;;;;-146.25;100.00;52514.19;2095939;28;20045;-66
2024/04/03 04:36:54;;;;;;;22.15;8.77;;;;;;;-146.25;100.00;52562.84;2082376;28;20061;-66
2024/04/03 04:37:54;;;;;;;21.67;8.20;;;;;;;-146.25;100.00;52538.53;2089099;28;20052;-67
2024/04/03 04:38:55;;;;;;;27.95;9.32;;;;;;;-146.25;100.00;52532.44;2104974;28;20495;-67